Terminal Aerodrome Forecast
Issued by NWS Wichita, KS

Home | Current Version | Previous Version | Graphics & Text | Print | Product List | Glossary On
Versions: 1 2 3 4 5 6 7 8 9 10 11 12 13 14 15 16 17 18 19
000
FTUS43 KICT 211736
TAFICT
TAF
KICT 211736Z 2118/2218 20011KT P6SM SCT060 BKN250
     FM220500 19005KT P6SM VCTS OVC050CB
     FM221200 22004KT P6SM BKN060
     FM221400 33004KT P6SM BKN130=

USA.gov is the U.S. government's official web portal to all federal, state and local government web resources and services.